Time;durP1;ratioP1;P1;durP2;ratioP2;P2;SDS_P1;SDS_P2;PMS_P1;PMS_P2;Temp;Humidity;BMP_temperature;BMP_pressure;BME280_temperature;BME280_humidity;BME280_pressure;Samples;Min_cycle;Max_cycle;Signal;HPM_P1;HPM_P2
2024/01/27 00:01:34;;;;;;;2.42;1.50;;;;;;;;;;5014938;28;20116;-86
2024/01/27 00:03:59;;;;;;;3.20;1.27;;;;;;;;;;5015558;28;20371;-87
2024/01/27 00:06:25;;;;;;;3.28;1.67;;;;;;;;;;5015001;28;20026;-87
2024/01/27 00:08:50;;;;;;;2.42;1.30;;;;;;;;;;5016968;28;20100;-87
2024/01/27 00:11:15;;;;;;;0.77;0.77;;;;;;;;;;5016753;28;20106;-86
2024/01/27 00:13:41;;;;;;;1.13;1.05;;;;;;;;;;5017592;28;20107;-86
2024/01/27 00:16:06;;;;;;;1.67;1.23;;;;;;;;;;5021283;28;20026;-86
2024/01/27 00:18:32;;;;;;;1.30;1.20;;;;;;;;;;5018547;28;20025;-86
2024/01/27 00:20:57;;;;;;;4.53;2.40;;;;;;;;;;5017321;28;20748;-86
2024/01/27 00:23:22;;;;;;;1.05;1.05;;;;;;;;;;5017860;28;20014;-86
2024/01/27 00:25:48;;;;;;;4.38;1.83;;;;;;;;;;5019993;28;20156;-87
2024/01/27 00:28:13;;;;;;;1.40;1.30;;;;;;;;;;5023418;28;20017;-86
2024/01/27 00:30:38;;;;;;;1.65;1.25;;;;;;;;;;5030796;28;20065;-87
2024/01/27 00:33:04;;;;;;;0.90;0.88;;;;;;;;;;5020627;28;20641;-87
2024/01/27 00:35:29;;;;;;;1.65;1.17;;;;;;;;;;5021491;28;20024;-87
2024/01/27 00:37:54;;;;;;;0.88;0.82;;;;;;;;;;5019904;28;20030;-87
2024/01/27 00:40:20;;;;;;;3.25;1.42;;;;;;;;;;5016495;28;20030;-86
2024/01/27 00:42:45;;;;;;;3.88;1.77;;;;;;;;;;5010745;28;20041;-86
2024/01/27 00:45:11;;;;;;;1.58;1.27;;;;;;;;;;5018375;28;20105;-87
2024/01/27 00:47:36;;;;;;;1.40;1.30;;;;;;;;;;5019501;28;20026;-88
2024/01/27 00:50:01;;;;;;;3.33;1.42;;;;;;;;;;5020375;28;20086;-88
2024/01/27 00:52:27;;;;;;;2.50;1.75;;;;;;;;;;5021950;28;20030;-88
2024/01/27 00:54:52;;;;;;;2.28;1.80;;;;;;;;;;5011285;28;20065;-88
2024/01/27 00:57:17;;;;;;;5.15;2.35;;;;;;;;;;5021798;28;20038;-88
2024/01/27 00:59:43;;;;;;;2.53;2.33;;;;;;;;;;5019108;28;20029;-87
2024/01/27 01:02:08;;;;;;;3.70;2.30;;;;;;;;;;5017929;28;20346;-86
2024/01/27 01:04:34;;;;;;;3.17;2.88;;;;;;;;;;5014375;28;20689;-87
2024/01/27 01:06:59;;;;;;;4.20;2.65;;;;;;;;;;5017514;28;20076;-87
2024/01/27 01:09:25;;;;;;;3.65;1.80;;;;;;;;;;5018877;28;20049;-87
2024/01/27 01:11:50;;;;;;;1.38;1.15;;;;;;;;;;5018723;28;20026;-87
2024/01/27 01:14:16;;;;;;;1.63;1.23;;;;;;;;;;5020968;28;20026;-87
2024/01/27 01:16:41;;;;;;;4.55;1.42;;;;;;;;;;5010422;28;20028;-87
2024/01/27 01:19:07;;;;;;;2.97;1.75;;;;;;;;;;5019913;28;20053;-88
2024/01/27 01:21:32;;;;;;;1.42;1.33;;;;;;;;;;5018872;28;20424;-88
2024/01/27 01:23:57;;;;;;;1.83;1.65;;;;;;;;;;5016536;28;20057;-87
2024/01/27 01:26:24;;;;;;;3.17;2.13;;;;;;;;;;5015432;28;20030;-87
2024/01/27 01:28:50;;;;;;;4.47;2.88;;;;;;;;;;5011479;28;20029;-86
2024/01/27 01:31:15;;;;;;;1.98;1.85;;;;;;;;;;5014363;28;20472;-87
2024/01/27 01:33:40;;;;;;;2.47;1.65;;;;;;;;;;5014950;28;20034;-86
2024/01/27 01:36:06;;;;;;;3.63;2.28;;;;;;;;;;5013683;28;20021;-87
2024/01/27 01:38:31;;;;;;;4.68;2.85;;;;;;;;;;5017651;28;20041;-87
2024/01/27 01:40:57;;;;;;;2.13;1.63;;;;;;;;;;5017833;28;20022;-86
2024/01/27 01:43:22;;;;;;;2.38;1.30;;;;;;;;;;5016421;28;20071;-87
2024/01/27 01:45:47;;;;;;;1.73;1.40;;;;;;;;;;5018441;28;20030;-87
2024/01/27 01:48:13;;;;;;;5.00;1.77;;;;;;;;;;5018973;28;20025;-87
2024/01/27 01:50:38;;;;;;;2.60;1.98;;;;;;;;;;5002413;28;20041;-86
2024/01/27 01:53:05;;;;;;;2.70;1.83;;;;;;;;;;4999401;28;20134;-87
2024/01/27 01:55:30;;;;;;;2.20;1.40;;;;;;;;;;5017041;28;20116;-87
2024/01/27 01:57:55;;;;;;;4.57;2.03;;;;;;;;;;5015588;28;20061;-86
2024/01/27 02:00:21;;;;;;;1.80;1.02;;;;;;;;;;5017062;28;20480;-87
2024/01/27 02:02:46;;;;;;;1.98;1.70;;;;;;;;;;5014962;28;20037;-86
2024/01/27 02:05:12;;;;;;;3.42;2.20;;;;;;;;;;5011157;28;20522;-87
2024/01/27 02:07:38;;;;;;;1.77;1.67;;;;;;;;;;5015117;28;20056;-87
2024/01/27 02:10:05;;;;;;;2.33;2.13;;;;;;;;;;5008048;28;20014;-87
2024/01/27 02:12:31;;;;;;;4.20;2.85;;;;;;;;;;5006407;28;20030;-86
2024/01/27 02:14:56;;;;;;;3.55;2.08;;;;;;;;;;5007253;28;20617;-87
2024/01/27 02:17:21;;;;;;;2.70;2.35;;;;;;;;;;5016001;28;20034;-87
2024/01/27 02:19:46;;;;;;;9.05;1.98;;;;;;;;;;5011537;28;20030;-86
2024/01/27 02:22:12;;;;;;;1.85;1.75;;;;;;;;;;5014720;28;20090;-87
2024/01/27 02:24:37;;;;;;;1.20;0.93;;;;;;;;;;5001519;28;20018;-87
2024/01/27 02:27:03;;;;;;;0.82;0.80;;;;;;;;;;5009618;28;20384;-86
2024/01/27 02:29:29;;;;;;;0.80;0.80;;;;;;;;;;5007971;28;20089;-86
2024/01/27 02:31:55;;;;;;;1.55;0.82;;;;;;;;;;5014877;28;20022;-86
2024/01/27 02:34:21;;;;;;;0.57;0.57;;;;;;;;;;5009114;28;20092;-87
2024/01/27 02:36:46;;;;;;;1.27;1.17;;;;;;;;;;5014306;28;20037;-87
2024/01/27 02:39:11;;;;;;;7.30;1.08;;;;;;;;;;5014415;28;20022;-87
2024/01/27 02:41:38;;;;;;;0.65;0.65;;;;;;;;;;5013863;28;20032;-86
2024/01/27 02:44:05;;;;;;;1.02;0.93;;;;;;;;;;5015208;28;20014;-86
2024/01/27 02:46:30;;;;;;;1.60;1.50;;;;;;;;;;5015475;28;20176;-86
2024/01/27 02:48:55;;;;;;;1.38;1.27;;;;;;;;;;5007464;28;20073;-86
2024/01/27 02:51:21;;;;;;;4.63;1.55;;;;;;;;;;5014229;28;20034;-86
2024/01/27 02:53:46;;;;;;;1.10;1.10;;;;;;;;;;5013578;28;20447;-87
2024/01/27 02:56:11;;;;;;;3.13;2.20;;;;;;;;;;5015352;28;20029;-86
2024/01/27 02:58:37;;;;;;;0.90;0.90;;;;;;;;;;5013304;28;20029;-86
2024/01/27 03:01:02;;;;;;;1.30;1.13;;;;;;;;;;5009691;28;20021;-86
2024/01/27 03:03:29;;;;;;;2.55;1.13;;;;;;;;;;4996040;28;20018;-89
2024/01/27 03:05:54;;;;;;;1.10;1.05;;;;;;;;;;5015919;28;20075;-88
2024/01/27 03:08:19;;;;;;;1.27;1.20;;;;;;;;;;5017656;28;20108;-88
2024/01/27 03:10:45;;;;;;;1.20;1.20;;;;;;;;;;5008508;28;20042;-87
2024/01/27 03:13:10;;;;;;;0.95;0.95;;;;;;;;;;4997676;28;20022;-87
2024/01/27 03:15:37;;;;;;;1.35;1.25;;;;;;;;;;5001568;28;20120;-87
2024/01/27 03:18:02;;;;;;;1.05;1.02;;;;;;;;;;5012671;28;20506;-87
2024/01/27 03:20:28;;;;;;;1.20;1.10;;;;;;;;;;5011852;28;20021;-87
2024/01/27 03:22:53;;;;;;;1.75;1.40;;;;;;;;;;5008097;28;20033;-86
2024/01/27 03:25:18;;;;;;;1.80;1.45;;;;;;;;;;5007422;28;20412;-87
2024/01/27 03:27:44;;;;;;;1.00;1.00;;;;;;;;;;5010221;28;20025;-86
2024/01/27 03:30:10;;;;;;;1.13;1.00;;;;;;;;;;5017528;28;20101;-85
2024/01/27 03:32:35;;;;;;;1.58;1.48;;;;;;;;;;5015941;28;20125;-86
2024/01/27 03:35:00;;;;;;;1.88;0.85;;;;;;;;;;5016331;28;20698;-86
2024/01/27 03:37:27;;;;;;;1.05;1.05;;;;;;;;;;5016056;28;20056;-86
2024/01/27 03:39:52;;;;;;;3.55;1.52;;;;;;;;;;4997625;28;20101;-86
2024/01/27 03:42:17;;;;;;;1.45;1.33;;;;;;;;;;4999797;28;20119;-86
2024/01/27 03:44:43;;;;;;;1.23;1.15;;;;;;;;;;5015850;28;20026;-86
2024/01/27 03:47:08;;;;;;;2.00;1.63;;;;;;;;;;5006560;28;20093;-86
2024/01/27 03:49:33;;;;;;;1.60;1.38;;;;;;;;;;5013301;28;20492;-86
2024/01/27 03:51:59;;;;;;;1.00;1.00;;;;;;;;;;5015928;28;20029;-86
2024/01/27 03:54:24;;;;;;;1.67;1.42;;;;;;;;;;5008080;28;20269;-86
2024/01/27 03:56:49;;;;;;;3.45;2.17;;;;;;;;;;5008708;28;20534;-86
2024/01/27 03:59:15;;;;;;;1.65;1.50;;;;;;;;;;5010350;28;20018;-86
2024/01/27 04:01:40;;;;;;;2.40;1.10;;;;;;;;;;5013649;28;20038;-86
2024/01/27 04:04:05;;;;;;;2.00;1.52;;;;;;;;;;5016026;28;20034;-86
2024/01/27 04:06:37;;;;;;;1.10;1.00;;;;;;;;;;5015948;28;20072;-87
2024/01/27 04:09:03;;;;;;;1.70;1.60;;;;;;;;;;5010325;28;20033;-86
2024/01/27 04:11:28;;;;;;;1.08;0.85;;;;;;;;;;5017954;28;20030;-87
2024/01/27 04:13:53;;;;;;;2.20;1.63;;;;;;;;;;5020471;28;20029;-87
2024/01/27 04:16:19;;;;;;;0.93;0.93;;;;;;;;;;5033406;28;20061;-87
2024/01/27 04:18:44;;;;;;;4.45;1.70;;;;;;;;;;5020074;28;20122;-87
2024/01/27 04:21:09;;;;;;;1.23;1.15;;;;;;;;;;5013635;28;20058;-88
2024/01/27 04:23:34;;;;;;;1.42;1.27;;;;;;;;;;5007380;28;20069;-87
2024/01/27 04:26:00;;;;;;;1.17;1.10;;;;;;;;;;5017489;28;20038;-88
2024/01/27 04:28:25;;;;;;;0.85;0.75;;;;;;;;;;5014337;28;20037;-86
2024/01/27 04:30:50;;;;;;;1.25;1.08;;;;;;;;;;5015625;28;20499;-86
2024/01/27 04:33:16;;;;;;;1.85;0.93;;;;;;;;;;5016198;28;20056;-87
2024/01/27 04:35:43;;;;;;;2.40;1.25;;;;;;;;;;5015804;28;20037;-86
2024/01/27 04:38:09;;;;;;;5.13;1.33;;;;;;;;;;5004811;28;20377;-86
2024/01/27 04:40:35;;;;;;;1.55;1.15;;;;;;;;;;5010752;28;20028;-86
2024/01/27 04:43:01;;;;;;;1.10;1.10;;;;;;;;;;5015829;28;20376;-87
2024/01/27 04:45:27;;;;;;;1.50;1.00;;;;;;;;;;5015968;28;20033;-86
2024/01/27 04:47:53;;;;;;;1.00;1.00;;;;;;;;;;5006963;28;20037;-86
2024/01/27 04:50:19;;;;;;;5.28;1.17;;;;;;;;;;5015100;28;20038;-86
2024/01/27 04:52:44;;;;;;;0.88;0.88;;;;;;;;;;5015384;28;20083;-87
2024/01/27 04:55:10;;;;;;;0.88;0.88;;;;;;;;;;5016681;28;20022;-86
2024/01/27 04:57:35;;;;;;;1.30;1.20;;;;;;;;;;5015460;28;20038;-85
2024/01/27 05:00:01;;;;;;;0.80;0.80;;;;;;;;;;5016911;28;20026;-85
2024/01/27 05:02:26;;;;;;;0.90;0.90;;;;;;;;;;5014787;28;20044;-86
2024/01/27 05:04:52;;;;;;;0.70;0.68;;;;;;;;;;5014677;28;20022;-86
2024/01/27 05:07:17;;;;;;;4.18;1.17;;;;;;;;;;5001823;28;20025;-85
2024/01/27 05:09:43;;;;;;;1.73;1.15;;;;;;;;;;5012805;28;20096;-85
2024/01/27 05:12:08;;;;;;;1.30;1.20;;;;;;;;;;5015030;28;20026;-88
2024/01/27 05:14:34;;;;;;;1.25;1.10;;;;;;;;;;5008840;28;20030;-86
2024/01/27 05:16:59;;;;;;;0.98;0.82;;;;;;;;;;5013692;28;20026;-86
2024/01/27 05:19:24;;;;;;;1.05;0.95;;;;;;;;;;5015124;28;20032;-86
2024/01/27 05:21:50;;;;;;;1.00;1.00;;;;;;;;;;5006609;28;20014;-87
2024/01/27 05:24:15;;;;;;;0.57;0.57;;;;;;;;;;5011220;28;20516;-85
2024/01/27 05:26:41;;;;;;;1.45;1.25;;;;;;;;;;5005062;28;20034;-86
2024/01/27 05:29:06;;;;;;;1.77;1.63;;;;;;;;;;5015481;28;20029;-85
2024/01/27 05:31:32;;;;;;;1.63;0.88;;;;;;;;;;5015574;28;20030;-86
2024/01/27 05:33:57;;;;;;;0.60;0.60;;;;;;;;;;5013511;28;20502;-86
2024/01/27 05:36:22;;;;;;;1.10;0.65;;;;;;;;;;5013684;28;20018;-86
2024/01/27 05:38:48;;;;;;;1.23;1.15;;;;;;;;;;5016083;28;20117;-86
2024/01/27 05:41:14;;;;;;;1.00;1.00;;;;;;;;;;5015318;28;20037;-87
2024/01/27 05:43:39;;;;;;;0.90;0.90;;;;;;;;;;5014648;28;20022;-87
2024/01/27 05:46:04;;;;;;;1.08;0.93;;;;;;;;;;5015220;28;20032;-87
2024/01/27 05:48:30;;;;;;;0.75;0.75;;;;;;;;;;5014838;28;20049;-87
2024/01/27 05:50:59;;;;;;;1.08;0.90;;;;;;;;;;5007705;28;20113;-86
2024/01/27 05:53:25;;;;;;;1.10;1.10;;;;;;;;;;5006257;28;20510;-86
2024/01/27 05:55:51;;;;;;;1.08;1.08;;;;;;;;;;5007243;28;20026;-86
2024/01/27 05:58:16;;;;;;;3.50;1.25;;;;;;;;;;5012225;28;20037;-88
2024/01/27 06:00:45;;;;;;;4.30;1.10;;;;;;;;;;5006423;28;20030;-86
2024/01/27 06:03:10;;;;;;;3.17;1.45;;;;;;;;;;5004748;28;20029;-87
2024/01/27 06:05:36;;;;;;;5.55;0.77;;;;;;;;;;5015829;28;20048;-86
2024/01/27 06:08:02;;;;;;;5.07;1.48;;;;;;;;;;5007758;28;20087;-87
2024/01/27 06:10:27;;;;;;;2.17;1.42;;;;;;;;;;5014670;28;20164;-87
2024/01/27 06:12:52;;;;;;;0.82;0.82;;;;;;;;;;5014179;28;20160;-86
2024/01/27 06:15:18;;;;;;;0.90;0.90;;;;;;;;;;5015005;28;20022;-86
2024/01/27 06:17:43;;;;;;;4.53;1.73;;;;;;;;;;5017738;28;20046;-86
2024/01/27 06:20:09;;;;;;;1.33;1.20;;;;;;;;;;5020997;28;20064;-85
2024/01/27 06:22:34;;;;;;;0.98;0.98;;;;;;;;;;5013732;28;20444;-85
2024/01/27 06:24:59;;;;;;;1.33;1.00;;;;;;;;;;5014644;28;20026;-87
2024/01/27 06:27:25;;;;;;;2.30;1.42;;;;;;;;;;5016824;28;20034;-85
2024/01/27 06:29:50;;;;;;;1.77;1.05;;;;;;;;;;5016688;28;20064;-86
2024/01/27 06:32:15;;;;;;;0.88;0.88;;;;;;;;;;5013379;28;20041;-86
2024/01/27 06:34:41;;;;;;;1.08;1.08;;;;;;;;;;5013653;28;20030;-86
2024/01/27 06:37:06;;;;;;;1.20;1.10;;;;;;;;;;5014350;28;20038;-86
2024/01/27 06:39:32;;;;;;;1.77;0.80;;;;;;;;;;5037909;28;20077;-87
2024/01/27 06:41:57;;;;;;;0.75;0.75;;;;;;;;;;5035563;28;20032;-84
2024/01/27 06:44:22;;;;;;;0.95;0.95;;;;;;;;;;5015446;28;20028;-86
2024/01/27 06:46:50;;;;;;;0.95;0.95;;;;;;;;;;5021460;28;20026;-87
2024/01/27 06:49:16;;;;;;;1.55;1.45;;;;;;;;;;5018663;28;20018;-88
2024/01/27 06:51:41;;;;;;;1.10;1.00;;;;;;;;;;5005095;28;20030;-86
2024/01/27 06:54:07;;;;;;;1.63;1.52;;;;;;;;;;5017278;28;20033;-86
2024/01/27 06:56:32;;;;;;;1.73;1.40;;;;;;;;;;5019011;28;20071;-87
2024/01/27 06:58:57;;;;;;;1.05;0.95;;;;;;;;;;5011706;28;20384;-88
2024/01/27 07:01:23;;;;;;;1.17;0.85;;;;;;;;;;5008551;28;20188;-86
2024/01/27 07:03:48;;;;;;;1.42;1.30;;;;;;;;;;5006164;28;20423;-86
2024/01/27 07:06:13;;;;;;;1.15;1.13;;;;;;;;;;5017959;28;20109;-86
2024/01/27 07:08:39;;;;;;;9.27;1.33;;;;;;;;;;5017492;28;20084;-86
2024/01/27 07:11:04;;;;;;;3.00;1.13;;;;;;;;;;5017350;28;20053;-87
2024/01/27 07:13:30;;;;;;;1.65;1.55;;;;;;;;;;5017400;28;20437;-86
2024/01/27 07:15:58;;;;;;;0.98;0.98;;;;;;;;;;5017177;28;20030;-87
2024/01/27 07:18:24;;;;;;;3.65;1.35;;;;;;;;;;5017083;28;20534;-86
2024/01/27 07:20:51;;;;;;;1.75;1.52;;;;;;;;;;5016581;28;20058;-86
2024/01/27 07:23:17;;;;;;;1.63;1.45;;;;;;;;;;5019553;28;20279;-86
2024/01/27 07:25:43;;;;;;;2.58;1.38;;;;;;;;;;5017021;28;20033;-86
2024/01/27 07:28:08;;;;;;;1.45;1.35;;;;;;;;;;5016234;28;20037;-87
2024/01/27 07:30:33;;;;;;;5.00;1.50;;;;;;;;;;5018977;28;20028;-86
2024/01/27 07:32:59;;;;;;;2.75;1.60;;;;;;;;;;5017968;28;20057;-86
2024/01/27 07:35:24;;;;;;;1.23;1.13;;;;;;;;;;5021245;28;20068;-87
2024/01/27 07:37:49;;;;;;;1.20;1.10;;;;;;;;;;5018729;28;20037;-86
2024/01/27 07:40:15;;;;;;;1.67;1.58;;;;;;;;;;5017124;28;20018;-86
2024/01/27 07:42:41;;;;;;;1.75;1.65;;;;;;;;;;5017873;28;20025;-85
2024/01/27 07:45:12;;;;;;;2.03;1.27;;;;;;;;;;5018428;28;20022;-87
2024/01/27 07:47:38;;;;;;;1.52;1.42;;;;;;;;;;5019149;28;20542;-85
2024/01/27 07:50:04;;;;;;;1.73;1.48;;;;;;;;;;5017141;28;20034;-88
2024/01/27 07:52:30;;;;;;;4.15;1.70;;;;;;;;;;5015653;28;20026;-87
2024/01/27 07:54:55;;;;;;;4.35;1.98;;;;;;;;;;5013967;28;20026;-86
2024/01/27 07:57:20;;;;;;;2.80;1.83;;;;;;;;;;5016199;28;20033;-87
2024/01/27 07:59:46;;;;;;;3.08;1.80;;;;;;;;;;5029966;28;20677;-87
2024/01/27 08:02:11;;;;;;;2.83;2.42;;;;;;;;;;5017065;28;20555;-86
2024/01/27 08:04:38;;;;;;;2.67;2.05;;;;;;;;;;5017987;28;20022;-87
2024/01/27 08:07:09;;;;;;;3.35;1.98;;;;;;;;;;5008803;28;20026;-86
2024/01/27 08:09:35;;;;;;;4.82;1.83;;;;;;;;;;4999243;28;20033;-87
2024/01/27 08:12:01;;;;;;;2.95;1.58;;;;;;;;;;5017408;28;20029;-85
2024/01/27 08:14:29;;;;;;;6.70;2.17;;;;;;;;;;5007778;28;20026;-86
2024/01/27 08:16:56;;;;;;;4.97;2.58;;;;;;;;;;5017494;28;20500;-86
2024/01/27 08:19:21;;;;;;;4.25;2.17;;;;;;;;;;5015529;28;20053;-86
2024/01/27 08:21:47;;;;;;;4.60;1.77;;;;;;;;;;5011670;28;20030;-86
2024/01/27 08:24:13;;;;;;;5.97;2.60;;;;;;;;;;5016256;28;20030;-87
2024/01/27 08:26:39;;;;;;;4.93;2.55;;;;;;;;;;5017264;28;20036;-85
2024/01/27 08:29:04;;;;;;;2.35;2.10;;;;;;;;;;5019204;28;20109;-85
2024/01/27 08:31:29;;;;;;;3.17;2.38;;;;;;;;;;5017386;28;20101;-85
2024/01/27 08:33:55;;;;;;;4.00;2.67;;;;;;;;;;5017525;28;20029;-86
2024/01/27 08:36:20;;;;;;;2.88;1.80;;;;;;;;;;5025887;28;20081;-86
2024/01/27 08:38:45;;;;;;;5.00;2.05;;;;;;;;;;5035899;28;20025;-87
2024/01/27 08:41:11;;;;;;;9.55;3.08;;;;;;;;;;5032400;28;20020;-87
2024/01/27 08:43:36;;;;;;;3.08;2.00;;;;;;;;;;5020535;28;20064;-88
2024/01/27 08:46:02;;;;;;;4.30;2.60;;;;;;;;;;5009725;28;20021;-88
2024/01/27 08:48:28;;;;;;;2.72;1.80;;;;;;;;;;5011647;28;20033;-88
2024/01/27 08:50:53;;;;;;;3.92;1.95;;;;;;;;;;5024933;28;20065;-86
2024/01/27 08:53:18;;;;;;;6.82;2.20;;;;;;;;;;5020542;28;20034;-88
2024/01/27 08:55:44;;;;;;;6.68;2.08;;;;;;;;;;5019977;28;20029;-87
2024/01/27 08:58:09;;;;;;;1.85;1.60;;;;;;;;;;5016600;28;20465;-88
2024/01/27 09:00:35;;;;;;;1.65;1.40;;;;;;;;;;5019119;28;20026;-86
2024/01/27 09:03:01;;;;;;;2.67;1.80;;;;;;;;;;5018897;28;20025;-87
2024/01/27 09:05:27;;;;;;;4.15;2.88;;;;;;;;;;5015644;28;20503;-86
2024/01/27 09:07:53;;;;;;;2.80;2.17;;;;;;;;;;5002547;28;20030;-86
2024/01/27 09:10:18;;;;;;;3.00;2.00;;;;;;;;;;5012678;28;20040;-87
2024/01/27 09:12:44;;;;;;;3.22;2.65;;;;;;;;;;5015340;28;20026;-87
2024/01/27 09:15:09;;;;;;;3.28;2.30;;;;;;;;;;5016861;28;20030;-86
2024/01/27 09:17:35;;;;;;;3.92;2.78;;;;;;;;;;5015665;28;20040;-87
2024/01/27 09:20:01;;;;;;;3.28;2.45;;;;;;;;;;5015924;28;20108;-86
2024/01/27 09:22:26;;;;;;;2.53;1.95;;;;;;;;;;5018054;28;20081;-86
2024/01/27 09:24:52;;;;;;;3.70;3.10;;;;;;;;;;5016929;28;20048;-87
2024/01/27 09:27:17;;;;;;;5.72;2.45;;;;;;;;;;5019096;28;20497;-86
2024/01/27 09:29:43;;;;;;;7.50;3.45;;;;;;;;;;5010994;28;20141;-85
2024/01/27 09:32:08;;;;;;;3.58;2.85;;;;;;;;;;5005348;28;20344;-86
2024/01/27 09:34:34;;;;;;;8.77;2.42;;;;;;;;;;5016418;28;20538;-85
2024/01/27 09:37:00;;;;;;;2.28;2.08;;;;;;;;;;5015992;28;20030;-84
2024/01/27 09:39:25;;;;;;;3.17;2.20;;;;;;;;;;5016957;28;20080;-86
2024/01/27 09:41:52;;;;;;;4.78;2.40;;;;;;;;;;5012687;28;20072;-85
2024/01/27 09:44:19;;;;;;;4.47;2.50;;;;;;;;;;5014743;28;20036;-86
2024/01/27 09:46:45;;;;;;;3.97;2.88;;;;;;;;;;5010519;28;20026;-84
2024/01/27 09:49:13;;;;;;;4.68;2.72;;;;;;;;;;5015780;28;20021;-85
2024/01/27 09:51:38;;;;;;;4.22;3.00;;;;;;;;;;5012049;28;20464;-85
2024/01/27 09:54:04;;;;;;;3.90;2.95;;;;;;;;;;5008099;28;20026;-86
2024/01/27 09:56:31;;;;;;;11.18;2.50;;;;;;;;;;5015813;28;20030;-85
2024/01/27 09:58:57;;;;;;;5.55;2.20;;;;;;;;;;5009151;28;20029;-85
2024/01/27 10:01:25;;;;;;;3.05;2.38;;;;;;;;;;5006694;28;20025;-85
2024/01/27 10:03:51;;;;;;;6.15;2.90;;;;;;;;;;5009082;28;20018;-85
2024/01/27 10:06:17;;;;;;;3.20;2.30;;;;;;;;;;5011984;28;20048;-86
2024/01/27 10:08:51;;;;;;;8.80;2.63;;;;;;;;;;5014195;28;20026;-86
2024/01/27 10:11:19;;;;;;;4.18;2.50;;;;;;;;;;5013649;28;20025;-85
2024/01/27 10:13:45;;;;;;;5.90;2.67;;;;;;;;;;5009103;28;20026;-85
2024/01/27 10:16:12;;;;;;;2.67;1.75;;;;;;;;;;5013723;28;20037;-85
2024/01/27 10:18:37;;;;;;;6.55;2.42;;;;;;;;;;5021435;28;20065;-86
2024/01/27 10:21:20;;;;;;;2.20;1.75;;;;;;;;;;5021180;28;20025;-85
2024/01/27 10:23:46;;;;;;;5.63;2.30;;;;;;;;;;5015186;28;20018;-84
2024/01/27 10:26:11;;;;;;;2.63;2.00;;;;;;;;;;5014549;28;20550;-84
2024/01/27 10:28:37;;;;;;;2.47;2.25;;;;;;;;;;5009842;28;20030;-86
2024/01/27 10:31:12;;;;;;;4.97;1.98;;;;;;;;;;5016634;28;20036;-87
2024/01/27 10:33:38;;;;;;;4.00;2.22;;;;;;;;;;5012987;28;20048;-85
2024/01/27 10:36:04;;;;;;;9.75;3.05;;;;;;;;;;5015738;28;20024;-85
2024/01/27 10:38:38;;;;;;;3.50;2.03;;;;;;;;;;5013999;28;20017;-86
2024/01/27 10:41:12;;;;;;;4.78;2.13;;;;;;;;;;5014571;28;20115;-86
2024/01/27 10:43:39;;;;;;;6.88;2.03;;;;;;;;;;5013406;28;20022;-87
2024/01/27 10:46:06;;;;;;;3.42;2.35;;;;;;;;;;5005697;28;20033;-87
2024/01/27 10:48:34;;;;;;;6.85;1.95;;;;;;;;;;5003590;28;20076;-87
2024/01/27 10:51:03;;;;;;;7.10;2.35;;;;;;;;;;5012664;28;20539;-86
2024/01/27 10:53:35;;;;;;;3.95;2.67;;;;;;;;;;5013553;28;20034;-87
2024/01/27 10:56:01;;;;;;;7.85;2.55;;;;;;;;;;5019196;28;20028;-86
2024/01/27 10:58:28;;;;;;;3.78;2.42;;;;;;;;;;5021120;28;20542;-86
2024/01/27 11:00:55;;;;;;;9.77;2.53;;;;;;;;;;5017390;28;20021;-88
2024/01/27 11:03:22;;;;;;;2.13;1.80;;;;;;;;;;5015930;28;20057;-87
2024/01/27 11:05:48;;;;;;;3.13;1.77;;;;;;;;;;5016952;28;20021;-87
2024/01/27 11:08:16;;;;;;;3.33;2.50;;;;;;;;;;5017192;28;20026;-88
2024/01/27 11:10:41;;;;;;;3.75;2.30;;;;;;;;;;5026541;28;20077;-86
2024/01/27 11:13:08;;;;;;;5.35;2.40;;;;;;;;;;5034121;28;20006;-86
2024/01/27 11:15:33;;;;;;;2.38;2.17;;;;;;;;;;5027600;28;20082;-85
2024/01/27 11:18:03;;;;;;;3.85;1.77;;;;;;;;;;5018697;28;20049;-85
2024/01/27 11:20:31;;;;;;;2.72;2.00;;;;;;;;;;5016324;28;20048;-86
2024/01/27 11:23:08;;;;;;;5.75;2.22;;;;;;;;;;5016480;28;20034;-85
2024/01/27 11:25:33;;;;;;;3.42;1.38;;;;;;;;;;5017451;28;20122;-85
2024/01/27 11:27:59;;;;;;;3.67;1.73;;;;;;;;;;5016371;28;20045;-85
2024/01/27 11:30:29;;;;;;;4.65;2.00;;;;;;;;;;5016607;28;20025;-85
2024/01/27 11:33:01;;;;;;;2.90;1.83;;;;;;;;;;5019621;28;20032;-86
2024/01/27 11:35:27;;;;;;;6.53;2.20;;;;;;;;;;5029391;28;20124;-86
2024/01/27 11:37:54;;;;;;;6.30;1.75;;;;;;;;;;5028905;28;20021;-86
2024/01/27 11:40:19;;;;;;;2.92;1.80;;;;;;;;;;5018539;28;20641;-86
2024/01/27 11:42:54;;;;;;;3.65;2.45;;;;;;;;;;5019237;28;20444;-86
2024/01/27 11:45:19;;;;;;;4.28;2.25;;;;;;;;;;5020466;28;20383;-86
2024/01/27 11:47:45;;;;;;;3.83;1.85;;;;;;;;;;5020074;28;20017;-87
2024/01/27 11:50:11;;;;;;;3.67;2.58;;;;;;;;;;5010571;28;20061;-86
2024/01/27 11:52:37;;;;;;;4.82;2.00;;;;;;;;;;5019740;28;20043;-88
2024/01/27 11:55:03;;;;;;;3.95;1.80;;;;;;;;;;5016683;28;20109;-87
2024/01/27 11:57:28;;;;;;;7.20;2.22;;;;;;;;;;5018609;28;20034;-88
2024/01/27 11:59:54;;;;;;;4.00;1.65;;;;;;;;;;5010297;28;20026;-87
2024/01/27 12:02:20;;;;;;;4.60;2.67;;;;;;;;;;5018746;28;20028;-89
2024/01/27 12:04:46;;;;;;;4.00;1.73;;;;;;;;;;5021256;28;20431;-88
2024/01/27 12:07:12;;;;;;;2.92;2.10;;;;;;;;;;5020883;28;20037;-87
2024/01/27 12:09:37;;;;;;;1.50;1.33;;;;;;;;;;5019092;28;20025;-87
2024/01/27 12:12:04;;;;;;;3.20;2.10;;;;;;;;;;5018005;28;20037;-88
2024/01/27 12:14:46;;;;;;;4.80;2.08;;;;;;;;;;5011486;28;20030;-87
2024/01/27 12:17:11;;;;;;;3.53;2.17;;;;;;;;;;5011048;28;20018;-87
2024/01/27 12:19:50;;;;;;;5.53;2.35;;;;;;;;;;5018611;28;20073;-88
2024/01/27 12:22:33;;;;;;;5.40;2.10;;;;;;;;;;5019375;28;20029;-87
2024/01/27 12:25:09;;;;;;;2.85;1.98;;;;;;;;;;5014852;28;20018;-88
2024/01/27 12:27:35;;;;;;;4.35;2.13;;;;;;;;;;5019334;28;20121;-87
2024/01/27 12:30:01;;;;;;;4.93;2.67;;;;;;;;;;5022581;28;20065;-88
2024/01/27 12:32:27;;;;;;;2.25;1.92;;;;;;;;;;5019186;28;20038;-88
2024/01/27 12:34:52;;;;;;;5.60;1.90;;;;;;;;;;5020905;28;20071;-87
2024/01/27 12:37:18;;;;;;;3.50;1.92;;;;;;;;;;5019163;28;20117;-87
2024/01/27 12:39:44;;;;;;;8.52;2.50;;;;;;;;;;5017803;28;20506;-88
2024/01/27 12:42:10;;;;;;;4.55;1.90;;;;;;;;;;5021086;28;20028;-88
2024/01/27 12:44:35;;;;;;;6.40;2.30;;;;;;;;;;5021516;28;20053;-89
2024/01/27 12:47:01;;;;;;;7.60;2.13;;;;;;;;;;5021455;28;20026;-88
2024/01/27 12:49:27;;;;;;;4.28;1.58;;;;;;;;;;5020872;28;20040;-88
2024/01/27 12:51:52;;;;;;;1.65;1.55;;;;;;;;;;5020044;28;20029;-88
2024/01/27 12:54:19;;;;;;;7.97;1.83;;;;;;;;;;5021495;28;20060;-88
2024/01/27 12:56:44;;;;;;;1.83;1.38;;;;;;;;;;5019846;28;20085;-88
2024/01/27 12:59:10;;;;;;;5.25;1.65;;;;;;;;;;5013202;28;20123;-88
2024/01/27 13:01:36;;;;;;;2.05;1.45;;;;;;;;;;5021383;28;20026;-88
2024/01/27 13:04:02;;;;;;;3.88;1.67;;;;;;;;;;5019418;28;20105;-86
2024/01/27 13:06:27;;;;;;;3.78;1.85;;;;;;;;;;5021443;28;20053;-88
2024/01/27 13:08:54;;;;;;;5.38;2.30;;;;;;;;;;5026048;28;20038;-88
2024/01/27 13:11:20;;;;;;;4.30;2.25;;;;;;;;;;5023684;28;20026;-87
2024/01/27 13:13:45;;;;;;;10.65;2.80;;;;;;;;;;5020216;28;20099;-88
2024/01/27 13:16:11;;;;;;;3.65;2.08;;;;;;;;;;5019896;28;20056;-86
2024/01/27 13:18:37;;;;;;;3.15;2.10;;;;;;;;;;5024305;28;20117;-86
2024/01/27 13:21:04;;;;;;;7.18;2.10;;;;;;;;;;5023579;28;20108;-85
2024/01/27 13:23:29;;;;;;;3.33;1.73;;;;;;;;;;5022767;28;20034;-84
2024/01/27 13:25:55;;;;;;;3.45;2.28;;;;;;;;;;5023277;28;20026;-86
2024/01/27 13:28:20;;;;;;;3.15;1.50;;;;;;;;;;5020654;28;20025;-84
2024/01/27 13:30:45;;;;;;;5.03;1.63;;;;;;;;;;5025868;28;20048;-86
2024/01/27 13:33:11;;;;;;;3.95;2.00;;;;;;;;;;5025354;28;20102;-84
2024/01/27 13:35:39;;;;;;;2.13;1.77;;;;;;;;;;5024660;28;20488;-84
2024/01/27 13:38:05;;;;;;;4.07;1.85;;;;;;;;;;5026736;28;20018;-86
2024/01/27 13:40:31;;;;;;;3.88;1.33;;;;;;;;;;5025286;28;20022;-85
2024/01/27 13:42:57;;;;;;;2.97;1.38;;;;;;;;;;5023172;28;20056;-85
2024/01/27 13:45:23;;;;;;;2.45;1.23;;;;;;;;;;5022493;28;20024;-84
2024/01/27 13:47:48;;;;;;;3.80;1.90;;;;;;;;;;5023035;28;20053;-85
2024/01/27 13:50:14;;;;;;;3.85;1.92;;;;;;;;;;5022912;28;20025;-85
2024/01/27 13:52:41;;;;;;;1.33;1.30;;;;;;;;;;5013738;28;20037;-84
2024/01/27 13:55:06;;;;;;;9.00;2.80;;;;;;;;;;5022253;28;20037;-84
2024/01/27 13:57:32;;;;;;;4.20;1.75;;;;;;;;;;5021660;28;20244;-84
2024/01/27 13:59:57;;;;;;;5.78;1.65;;;;;;;;;;5021922;28;20076;-84
2024/01/27 14:02:23;;;;;;;2.40;1.98;;;;;;;;;;5020740;28;20034;-84
2024/01/27 14:04:48;;;;;;;1.45;1.35;;;;;;;;;;5020663;28;20036;-86
2024/01/27 14:07:14;;;;;;;2.50;1.50;;;;;;;;;;5019980;28;20029;-85
2024/01/27 14:09:39;;;;;;;4.10;1.38;;;;;;;;;;5021540;28;20025;-85
2024/01/27 14:12:05;;;;;;;5.22;1.60;;;;;;;;;;5019858;28;20029;-84
2024/01/27 14:14:31;;;;;;;7.63;1.95;;;;;;;;;;5019919;28;20022;-84
2024/01/27 14:16:57;;;;;;;4.35;1.88;;;;;;;;;;5021130;28;20113;-84
2024/01/27 14:19:23;;;;;;;6.07;1.80;;;;;;;;;;5020524;28;20060;-84
2024/01/27 14:21:48;;;;;;;7.88;1.77;;;;;;;;;;5019726;28;20029;-84
2024/01/27 14:24:14;;;;;;;5.60;2.25;;;;;;;;;;5013805;28;20022;-84
2024/01/27 14:26:39;;;;;;;7.93;2.25;;;;;;;;;;5017104;28;20037;-86
2024/01/27 14:29:04;;;;;;;4.82;1.15;;;;;;;;;;5019998;28;20022;-86
2024/01/27 14:31:30;;;;;;;2.92;1.15;;;;;;;;;;5020068;28;20034;-85
2024/01/27 14:33:56;;;;;;;2.17;1.30;;;;;;;;;;5019045;28;20094;-86
2024/01/27 14:36:23;;;;;;;7.90;1.50;;;;;;;;;;5018974;28;20022;-87